Terminal Aerodrome Forecast
Issued by NWS Atlanta, GA

Home | Current Version | Previous Version | Text Only | Print | Product List | Glossary On
Versions: 1 2 3 4 5 6 7 8 9 10 11 12 13 14 15 16 17 18
000
FTUS42 KFFC 190529
TAFCSG
TAF
KCSG 190529Z 1906/2006 00000KT P6SM FEW250
     FM191400 28007KT P6SM FEW030
     FM191800 28008KT P6SM SCT050
     FM200200 28004KT P6SM FEW050 SCT250=

USA.gov is the U.S. government's official web portal to all federal, state and local government web resources and services.